Time;durP1;ratioP1;P1;durP2;ratioP2;P2;SDS_P1;SDS_P2;PMS_P1;PMS_P2;Temp;Humidity;BMP_temperature;BMP_pressure;BME280_temperature;BME280_humidity;BME280_pressure;Samples;Min_cycle;Max_cycle;Signal;HPM_P1;HPM_P2
2022/12/27 00:02:23;;;;;;;5.68;0.50;;;;;;;2.44;100.00;101196.97;6241500;22;20019;-76
2022/12/27 00:04:50;;;;;;;2.35;1.00;;;;;;;2.39;100.00;101205.44;6217035;22;20019;-75
2022/12/27 00:07:17;;;;;;;2.45;1.17;;;;;;;2.33;100.00;101198.31;6241546;22;20004;-75
2022/12/27 00:09:44;;;;;;;2.72;1.00;;;;;;;2.34;100.00;101196.63;6215855;22;20012;-76
2022/12/27 00:12:11;;;;;;;3.85;1.23;;;;;;;2.43;100.00;101199.53;6219114;22;20358;-74
2022/12/27 00:14:37;;;;;;;5.15;1.38;;;;;;;2.47;100.00;101222.91;6244604;22;20011;-74
2022/12/27 00:17:04;;;;;;;8.20;2.65;;;;;;;2.36;100.00;101213.06;6244313;22;20011;-74
2022/12/27 00:19:30;;;;;;;6.35;1.50;;;;;;;2.30;100.00;101211.16;6245097;22;20022;-74
2022/12/27 00:21:57;;;;;;;7.28;1.60;;;;;;;2.28;100.00;101202.47;6245883;22;20019;-74
2022/12/27 00:24:23;;;;;;;6.35;1.73;;;;;;;2.34;100.00;101210.41;6245541;22;20041;-74
2022/12/27 00:26:50;;;;;;;5.70;2.10;;;;;;;2.27;100.00;101205.91;6273508;22;20721;-74
2022/12/27 00:29:16;;;;;;;2.58;1.10;;;;;;;2.25;100.00;101202.38;6272092;22;20061;-74
2022/12/27 00:31:42;;;;;;;4.60;0.88;;;;;;;2.25;100.00;101215.28;6245708;22;20047;-74
2022/12/27 00:34:10;;;;;;;8.65;1.13;;;;;;;2.28;100.00;101213.69;6246384;22;20415;-77
2022/12/27 00:36:36;;;;;;;3.13;1.33;;;;;;;2.20;100.00;101212.53;6221302;22;20070;-74
2022/12/27 00:39:04;;;;;;;3.53;0.95;;;;;;;2.25;100.00;101223.91;6246340;22;20023;-75
2022/12/27 00:41:31;;;;;;;5.32;1.58;;;;;;;2.36;100.00;101213.06;6220643;22;20027;-74
2022/12/27 00:43:57;;;;;;;5.38;1.40;;;;;;;2.53;100.00;101226.53;6246241;22;20011;-75
2022/12/27 00:46:24;;;;;;;7.88;1.58;;;;;;;2.59;99.65;101222.44;6245826;22;20030;-74
2022/12/27 00:48:50;;;;;;;5.85;1.60;;;;;;;2.68;99.14;101219.28;6243853;22;20012;-74
2022/12/27 00:51:21;;;;;;;5.93;1.58;;;;;;;2.80;98.42;101244.66;6245021;22;20038;-76
2022/12/27 00:53:50;;;;;;;7.95;1.67;;;;;;;2.94;96.58;101235.63;6246057;22;20018;-75
2022/12/27 00:56:26;;;;;;;3.83;1.15;;;;;;;2.95;97.09;101236.53;6244155;22;20426;-74
2022/12/27 00:58:58;;;;;;;5.55;1.77;;;;;;;2.97;97.63;101221.91;6244754;22;20450;-74
2022/12/27 01:01:27;;;;;;;6.50;2.47;;;;;;;3.00;99.54;101231.47;6219476;22;20016;-74
2022/12/27 01:03:54;;;;;;;6.07;1.40;;;;;;;2.96;99.22;101221.06;6271803;22;20008;-74
2022/12/27 01:06:24;;;;;;;5.80;2.45;;;;;;;2.92;99.92;101239.00;6219028;22;20027;-74
2022/12/27 01:08:51;;;;;;;6.30;2.47;;;;;;;2.81;100.00;101241.25;6245920;22;20097;-74
2022/12/27 01:11:18;;;;;;;6.53;1.65;;;;;;;2.76;100.00;101246.25;6244942;22;20434;-75
2022/12/27 01:13:46;;;;;;;10.55;1.95;;;;;;;2.64;100.00;101259.66;6245199;22;20012;-74
2022/12/27 01:16:17;;;;;;;5.95;2.38;;;;;;;2.51;100.00;101259.22;6220269;22;20020;-74
2022/12/27 01:18:44;;;;;;;5.15;3.13;;;;;;;2.52;100.00;101259.28;6244373;22;20024;-74
2022/12/27 01:21:13;;;;;;;7.60;2.33;;;;;;;2.45;100.00;101271.09;6245602;22;20281;-75
2022/12/27 01:23:41;;;;;;;4.65;2.28;;;;;;;2.47;100.00;101261.69;6245750;22;20526;-73
2022/12/27 01:26:13;;;;;;;7.10;2.30;;;;;;;2.45;100.00;101265.94;6245349;22;20020;-75
2022/12/27 01:28:40;;;;;;;9.90;2.95;;;;;;;2.50;100.00;101268.66;6245636;22;20043;-77
2022/12/27 01:31:11;;;;;;;8.18;3.08;;;;;;;2.57;100.00;101265.47;6219313;22;20498;-74
2022/12/27 01:33:39;;;;;;;12.25;2.85;;;;;;;2.52;100.00;101258.41;6271683;22;20016;-74
2022/12/27 01:36:23;;;;;;;8.27;2.92;;;;;;;2.44;100.00;101269.34;6245279;22;20414;-76
2022/12/27 01:38:51;;;;;;;6.85;1.88;;;;;;;2.47;100.00;101264.25;6244418;22;20012;-75
2022/12/27 01:44:37;;;;;;;8.48;2.47;;;;;;;2.58;99.83;101261.16;6248263;22;20026;-75
2022/12/27 01:47:14;;;;;;;7.22;3.08;;;;;;;2.51;99.50;101265.25;6243978;22;20027;-75
2022/12/27 01:49:49;;;;;;;13.20;2.80;;;;;;;2.51;99.74;101274.72;6243959;22;20012;-76
2022/12/27 01:52:15;;;;;;;6.85;3.10;;;;;;;2.34;100.00;101276.72;6243790;22;20014;-75
2022/12/27 01:54:43;;;;;;;6.38;2.60;;;;;;;2.31;100.00;101272.34;6219343;22;20026;-74
2022/12/27 01:57:11;;;;;;;10.48;2.40;;;;;;;2.41;100.00;101279.59;6193757;22;20043;-75
2022/12/27 01:59:38;;;;;;;7.20;2.00;;;;;;;2.53;100.00;101280.81;6244293;22;20019;-75
2022/12/27 02:02:05;;;;;;;9.85;4.10;;;;;;;2.57;100.00;101278.41;6243156;22;20015;-75
2022/12/27 02:04:32;;;;;;;7.97;2.28;;;;;;;2.76;99.58;101281.59;6244768;22;20018;-75
2022/12/27 02:07:00;;;;;;;4.78;2.20;;;;;;;2.87;98.75;101302.63;6244778;22;20023;-76
2022/12/27 02:09:39;;;;;;;10.00;2.75;;;;;;;2.92;98.16;101290.72;6218041;22;20011;-75
2022/12/27 02:12:07;;;;;;;5.80;1.90;;;;;;;2.96;97.91;101296.06;6243829;22;20053;-74
2022/12/27 02:14:39;;;;;;;7.30;2.45;;;;;;;2.93;98.47;101302.81;6270518;22;20039;-76
2022/12/27 02:17:21;;;;;;;10.57;3.28;;;;;;;2.93;98.37;101302.81;6216742;22;20419;-75
2022/12/27 02:20:12;;;;;;;6.50;1.83;;;;;;;2.88;98.82;101296.63;6215117;22;20106;-75
2022/12/27 02:26:10;;;;;;;5.32;2.65;;;;;;;2.78;100.00;101306.66;6247701;22;20018;-74
2022/12/27 02:29:07;;;;;;;4.95;2.38;;;;;;;2.67;100.00;101302.81;6270182;22;20019;-75
2022/12/27 02:32:14;;;;;;;5.55;2.25;;;;;;;2.74;100.00;101307.41;6217622;22;20026;-74
2022/12/27 02:35:15;;;;;;;10.25;2.28;;;;;;;2.80;100.00;101299.84;6270995;22;20016;-75
2022/12/27 02:37:51;;;;;;;7.72;2.03;;;;;;;2.76;100.00;101304.84;6243522;22;20019;-74
2022/12/27 02:55:29;;;;;;;5.93;2.25;;;;;;;2.84;100.00;101315.47;6227800;22;20106;-73
2022/12/27 02:58:15;;;;;;;4.97;2.35;;;;;;;2.78;100.00;101298.91;6218913;22;20015;-74
2022/12/27 03:04:11;;;;;;;7.20;2.60;;;;;;;2.74;100.00;101293.59;6248170;22;20427;-75
2022/12/27 03:07:09;;;;;;;3.92;1.88;;;;;;;2.75;100.00;101295.34;6243739;22;20015;-74
2022/12/27 03:16:54;;;;;;;1.50;1.40;;;;;;;2.70;100.00;101294.31;6221995;22;20011;-75
2022/12/27 03:25:28;;;;;;;7.90;3.03;;;;;;;2.76;100.00;101291.94;6243308;22;20015;-74
2022/12/27 03:33:41;;;;;;;4.88;2.50;;;;;;;2.80;100.00;101305.03;6247114;22;20088;-74
2022/12/27 03:39:34;;;;;;;8.40;2.95;;;;;;;2.95;100.00;101314.97;6246255;22;20018;-74
2022/12/27 03:44:52;;;;;;;6.30;2.17;;;;;;;2.88;100.00;101306.97;6221547;22;20011;-74
2022/12/27 03:47:52;;;;;;;7.30;2.47;;;;;;;2.83;100.00;101299.06;6243009;22;20018;-75
2022/12/27 03:50:36;;;;;;;6.60;3.47;;;;;;;2.89;100.00;101311.31;6242612;22;20020;-75
2022/12/27 03:53:21;;;;;;;10.10;2.58;;;;;;;2.84;100.00;101305.13;6244419;22;20020;-74
2022/12/27 03:55:48;;;;;;;7.45;3.00;;;;;;;2.89;100.00;101314.78;6220680;22;20011;-76
2022/12/27 03:58:15;;;;;;;6.38;3.20;;;;;;;2.92;100.00;101301.06;6245786;22;20043;-74
2022/12/27 04:00:41;;;;;;;7.10;2.95;;;;;;;2.97;100.00;101305.56;6246355;22;20016;-74
2022/12/27 04:03:08;;;;;;;5.50;2.97;;;;;;;3.01;100.00;101310.84;6245649;22;20622;-74
2022/12/27 04:05:34;;;;;;;8.40;2.80;;;;;;;2.93;100.00;101300.25;6245870;22;20019;-74
2022/12/27 04:35:22;;;;;;;6.65;3.65;;;;;;;3.17;100.00;101309.63;6224461;22;20567;-76
2022/12/27 04:37:48;;;;;;;6.68;3.35;;;;;;;3.13;100.00;101316.44;6221080;22;20138;-75
2022/12/27 04:57:05;;;;;;;7.10;3.63;;;;;;;3.65;100.00;101317.16;6127820;23;20029;-75
2022/12/27 05:02:20;;;;;;;7.47;2.90;;;;;;;3.69;100.00;101320.72;6185231;22;20017;-76
2022/12/27 05:04:48;;;;;;;10.80;3.33;;;;;;;3.75;99.76;101311.41;6245672;22;20308;-75
2022/12/27 05:15:31;;;;;;;7.28;4.68;;;;;;;3.69;99.87;101294.81;6249519;22;20095;-76
2022/12/27 05:17:58;;;;;;;8.02;3.65;;;;;;;3.67;99.98;101319.81;6245620;22;20012;-75
2022/12/27 05:20:24;;;;;;;9.10;4.05;;;;;;;3.53;100.00;101319.38;6244038;22;20042;-76
2022/12/27 05:25:36;;;;;;;5.38;4.13;;;;;;;3.39;100.00;101322.41;6270889;22;20045;-75
2022/12/27 05:28:08;;;;;;;10.80;3.83;;;;;;;3.48;100.00;101325.28;6244154;22;20012;-75
2022/12/27 05:30:36;;;;;;;9.55;3.80;;;;;;;3.50;100.00;101324.47;6243550;22;20101;-74
2022/12/27 05:33:04;;;;;;;10.10;4.07;;;;;;;3.60;100.00;101331.69;6242296;22;20639;-73
2022/12/27 05:35:30;;;;;;;5.65;3.80;;;;;;;3.64;100.00;101336.13;6245423;22;20019;-74
2022/12/27 05:37:57;;;;;;;9.60;4.45;;;;;;;3.71;100.00;101330.28;6244384;22;20108;-73
2022/12/27 05:40:25;;;;;;;7.38;4.28;;;;;;;3.69;100.00;101333.66;6270564;22;20012;-74
2022/12/27 05:42:51;;;;;;;7.18;4.65;;;;;;;3.76;100.00;101335.59;6243025;22;20012;-75
2022/12/27 05:45:19;;;;;;;8.30;4.50;;;;;;;3.75;100.00;101339.88;6242595;22;20011;-74
2022/12/27 05:47:45;;;;;;;9.00;4.32;;;;;;;3.73;100.00;101346.75;6242037;22;20012;-73
2022/12/27 05:50:12;;;;;;;7.35;3.88;;;;;;;3.68;100.00;101350.00;6216899;22;20065;-74
2022/12/27 05:52:39;;;;;;;14.23;4.13;;;;;;;3.59;100.00;101348.03;6244626;22;20058;-74
2022/12/27 05:55:06;;;;;;;6.53;4.22;;;;;;;3.53;100.00;101364.25;6218973;22;20439;-74
2022/12/27 05:57:33;;;;;;;7.57;3.97;;;;;;;3.41;100.00;101359.56;6244507;22;20078;-75
2022/12/27 06:00:00;;;;;;;10.55;4.75;;;;;;;3.36;100.00;101357.66;6243915;22;20411;-74
2022/12/27 06:02:26;;;;;;;5.95;4.38;;;;;;;3.39;100.00;101373.28;6270921;22;20369;-74
2022/12/27 06:04:53;;;;;;;10.48;4.35;;;;;;;3.44;100.00;101376.91;6219497;22;20062;-74
2022/12/27 06:07:19;;;;;;;11.70;4.85;;;;;;;3.57;100.00;101373.00;6243996;22;20015;-75
2022/12/27 06:09:46;;;;;;;9.38;4.40;;;;;;;3.67;100.00;101371.59;6243601;22;20703;-74
2022/12/27 06:12:12;;;;;;;8.30;4.63;;;;;;;3.72;100.00;101383.84;6244120;22;20057;-74
2022/12/27 06:14:40;;;;;;;7.20;3.70;;;;;;;3.72;100.00;101388.16;6245038;22;20007;-73
2022/12/27 06:17:06;;;;;;;5.10;4.07;;;;;;;3.67;100.00;101393.16;6244676;22;20007;-74
2022/12/27 06:19:33;;;;;;;7.45;4.22;;;;;;;3.58;100.00;101391.16;6218783;22;20015;-74
2022/12/27 06:21:59;;;;;;;6.90;3.83;;;;;;;3.51;100.00;101394.41;6218798;22;20020;-74
2022/12/27 06:24:26;;;;;;;8.55;4.47;;;;;;;3.57;100.00;101391.13;6244961;22;20019;-74
2022/12/27 06:26:52;;;;;;;5.00;3.85;;;;;;;3.58;100.00;101404.09;6244784;22;20695;-74
2022/12/27 06:29:19;;;;;;;6.53;4.80;;;;;;;3.60;100.00;101401.59;6244730;22;20015;-74
2022/12/27 06:31:45;;;;;;;8.40;3.80;;;;;;;3.60;100.00;101406.75;6243943;22;20015;-73
2022/12/27 06:34:12;;;;;;;12.50;4.45;;;;;;;3.64;100.00;101406.03;6244518;22;20442;-74
2022/12/27 06:36:38;;;;;;;5.50;4.28;;;;;;;3.66;100.00;101413.84;6270448;22;20022;-74
2022/12/27 06:39:05;;;;;;;10.65;3.75;;;;;;;3.67;100.00;101408.69;6270987;22;20696;-74
2022/12/27 06:41:32;;;;;;;10.40;3.40;;;;;;;3.69;100.00;101394.09;6242888;22;20016;-74
2022/12/27 06:43:58;;;;;;;6.47;3.80;;;;;;;3.57;100.00;101414.41;6243502;22;20012;-75
2022/12/27 06:46:25;;;;;;;10.70;5.70;;;;;;;3.47;100.00;101414.13;6244081;22;20019;-73
2022/12/27 06:48:52;;;;;;;12.05;4.05;;;;;;;3.47;100.00;101418.44;6243622;22;20012;-74
2022/12/27 06:51:21;;;;;;;4.53;3.90;;;;;;;3.36;100.00;101420.66;6244737;22;20016;-75
2022/12/27 06:53:48;;;;;;;7.85;3.00;;;;;;;3.30;100.00;101417.88;6220768;22;20073;-76
2022/12/27 06:56:18;;;;;;;6.25;3.17;;;;;;;3.38;100.00;101425.91;6245906;22;20011;-75
2022/12/27 06:58:47;;;;;;;9.93;3.33;;;;;;;3.52;100.00;101421.16;6244667;22;20077;-77
2022/12/27 07:01:20;;;;;;;3.65;2.97;;;;;;;3.49;100.00;101429.69;6218243;22;20023;-74
2022/12/27 07:03:53;;;;;;;5.15;3.88;;;;;;;3.52;100.00;101435.00;6244147;22;20008;-74
2022/12/27 07:06:21;;;;;;;6.82;3.72;;;;;;;3.43;100.00;101432.13;6244258;22;20015;-74
2022/12/27 07:08:49;;;;;;;6.35;3.78;;;;;;;3.36;100.00;101440.47;6243806;22;20016;-74
2022/12/27 07:11:16;;;;;;;11.70;4.30;;;;;;;3.36;100.00;101438.75;6244204;22;20061;-76
2022/12/27 07:13:47;;;;;;;9.48;3.70;;;;;;;3.31;100.00;101448.97;6244008;22;20038;-75
2022/12/27 07:16:16;;;;;;;5.40;4.13;;;;;;;3.30;100.00;101452.38;6243970;22;20011;-75
2022/12/27 07:18:43;;;;;;;5.40;3.92;;;;;;;3.47;100.00;101455.53;6244103;22;20374;-76
2022/12/27 07:21:14;;;;;;;11.35;4.68;;;;;;;3.50;100.00;101452.16;6243067;22;20540;-75
2022/12/27 07:23:41;;;;;;;4.53;3.60;;;;;;;3.52;100.00;101458.28;6243432;22;20335;-75
2022/12/27 07:26:13;;;;;;;8.90;3.85;;;;;;;3.46;100.00;101461.53;6243400;22;20018;-75
2022/12/27 07:28:41;;;;;;;13.05;4.07;;;;;;;3.35;100.00;101465.50;6218819;22;20016;-76
2022/12/27 07:31:17;;;;;;;7.20;4.22;;;;;;;3.25;100.00;101469.47;6244182;22;20327;-75
2022/12/27 07:33:44;;;;;;;5.68;3.50;;;;;;;3.28;100.00;101476.47;6244942;22;20023;-75
2022/12/27 07:36:20;;;;;;;11.05;4.22;;;;;;;3.34;100.00;101479.25;6244585;22;20022;-75
2022/12/27 07:38:47;;;;;;;5.20;3.33;;;;;;;3.48;100.00;101483.19;6244761;22;20007;-74
2022/12/27 07:41:14;;;;;;;10.20;5.13;;;;;;;3.46;100.00;101478.78;6245059;22;20430;-75
2022/12/27 07:43:42;;;;;;;7.72;3.72;;;;;;;3.47;100.00;101483.16;6219515;22;20022;-75
2022/12/27 07:46:22;;;;;;;6.70;3.70;;;;;;;3.28;100.00;101497.16;6271357;22;20027;-75
2022/12/27 07:48:49;;;;;;;6.38;3.03;;;;;;;3.20;100.00;101503.78;6244522;22;20016;-75
2022/12/27 07:51:17;;;;;;;5.20;3.85;;;;;;;3.28;100.00;101504.91;6272374;22;20087;-75
2022/12/27 07:53:44;;;;;;;5.43;3.60;;;;;;;3.28;100.00;101508.38;6244965;22;20430;-75
2022/12/27 07:56:17;;;;;;;9.45;3.72;;;;;;;3.31;100.00;101502.44;6244707;22;20046;-73
2022/12/27 07:58:47;;;;;;;12.07;4.05;;;;;;;3.29;100.00;101504.97;6244720;22;20442;-74
2022/12/27 08:01:16;;;;;;;10.50;4.65;;;;;;;3.34;100.00;101505.16;6245433;22;20311;-74
2022/12/27 08:03:43;;;;;;;11.18;3.92;;;;;;;3.36;100.00;101523.31;6244534;22;20019;-74
2022/12/27 08:06:30;;;;;;;12.50;5.15;;;;;;;3.27;100.00;101511.81;6244616;22;20008;-74
2022/12/27 08:09:05;;;;;;;8.10;3.65;;;;;;;3.21;100.00;101519.34;6218634;22;20024;-73
2022/12/27 08:11:32;;;;;;;12.73;3.53;;;;;;;3.19;100.00;101520.13;6243776;22;20016;-74
2022/12/27 08:13:58;;;;;;;6.38;4.65;;;;;;;3.16;100.00;101527.78;6218860;22;20016;-74
2022/12/27 08:16:26;;;;;;;9.85;4.78;;;;;;;3.16;100.00;101525.22;6243652;22;20859;-74
2022/12/27 08:18:53;;;;;;;15.95;4.60;;;;;;;3.11;100.00;101525.03;6243711;22;20027;-74
2022/12/27 08:21:19;;;;;;;13.50;4.07;;;;;;;3.13;100.00;101529.44;6242883;22;20011;-75
2022/12/27 08:23:46;;;;;;;11.45;4.30;;;;;;;3.17;100.00;101524.34;6218256;22;20015;-74
2022/12/27 08:26:12;;;;;;;8.18;4.72;;;;;;;3.23;100.00;101540.97;6270210;22;20015;-75
2022/12/27 08:28:39;;;;;;;9.48;4.47;;;;;;;3.20;100.00;101530.53;6241249;22;20019;-74
2022/12/27 08:31:11;;;;;;;7.78;4.20;;;;;;;3.18;100.00;101537.38;6242772;22;20015;-74
2022/12/27 08:33:40;;;;;;;11.10;4.75;;;;;;;3.21;100.00;101531.44;6239497;22;20091;-74
2022/12/27 08:36:10;;;;;;;7.28;4.45;;;;;;;3.31;100.00;101538.66;6243929;22;20015;-73
2022/12/27 08:38:37;;;;;;;11.30;5.82;;;;;;;3.24;100.00;101560.00;6243781;22;20019;-73
2022/12/27 08:41:03;;;;;;;10.95;4.22;;;;;;;3.22;100.00;101559.03;6219086;22;20011;-73
2022/12/27 08:43:30;;;;;;;15.38;4.05;;;;;;;3.19;100.00;101564.13;6243153;22;20027;-74
2022/12/27 08:46:02;;;;;;;6.75;4.00;;;;;;;3.28;100.00;101557.53;6217661;22;20015;-74
2022/12/27 08:48:32;;;;;;;12.10;3.92;;;;;;;3.36;100.00;101572.47;6242961;22;20016;-74
2022/12/27 08:51:04;;;;;;;6.35;3.67;;;;;;;3.33;100.00;101568.06;6244096;22;20022;-75
2022/12/27 08:53:31;;;;;;;5.38;3.90;;;;;;;3.32;100.00;101574.06;6271004;22;20012;-74
2022/12/27 08:55:57;;;;;;;10.73;3.95;;;;;;;3.31;100.00;101587.81;6244735;22;20090;-74
2022/12/27 08:58:24;;;;;;;8.80;4.47;;;;;;;3.37;100.00;101582.00;6243405;22;20016;-75
2022/12/27 09:00:51;;;;;;;7.60;3.40;;;;;;;3.38;100.00;101584.66;6244280;22;20015;-74
2022/12/27 09:03:20;;;;;;;13.10;3.97;;;;;;;3.41;100.00;101587.34;6242525;22;20012;-76
2022/12/27 09:05:49;;;;;;;6.10;3.85;;;;;;;3.48;100.00;101586.72;6242933;22;20012;-76
2022/12/27 09:08:16;;;;;;;10.32;4.78;;;;;;;3.53;100.00;101597.22;6241722;22;20023;-74
2022/12/27 09:10:43;;;;;;;7.32;3.47;;;;;;;3.71;100.00;101603.91;6242447;22;20019;-76
2022/12/27 09:13:09;;;;;;;8.93;4.15;;;;;;;3.88;100.00;101614.84;6241653;22;20030;-73
2022/12/27 09:15:38;;;;;;;4.85;3.58;;;;;;;3.96;100.00;101616.88;6243870;22;20019;-73
2022/12/27 09:18:04;;;;;;;10.25;4.63;;;;;;;4.00;100.00;101622.13;6241083;22;20018;-75
2022/12/27 09:20:31;;;;;;;6.55;3.60;;;;;;;4.10;100.00;101611.25;6242165;22;20012;-75
2022/12/27 09:22:58;;;;;;;8.20;4.13;;;;;;;4.16;100.00;101618.34;6219691;22;20322;-74
2022/12/27 09:25:25;;;;;;;15.07;5.40;;;;;;;4.16;100.00;101606.28;6246664;22;20008;-74
2022/12/27 09:27:51;;;;;;;9.35;3.83;;;;;;;4.19;100.00;101610.69;6221047;22;20019;-74
2022/12/27 09:30:18;;;;;;;11.85;4.20;;;;;;;4.26;100.00;101610.03;6246173;22;20061;-74
2022/12/27 09:32:44;;;;;;;10.05;3.67;;;;;;;4.32;100.00;101605.06;6221150;22;20785;-76
2022/12/27 09:35:11;;;;;;;6.18;3.28;;;;;;;4.32;100.00;101618.00;6247016;22;20011;-74
2022/12/27 09:37:37;;;;;;;10.43;5.38;;;;;;;4.33;100.00;101622.38;6245009;22;20094;-74
2022/12/27 09:40:04;;;;;;;7.30;3.58;;;;;;;4.46;99.98;101626.25;6219411;22;20046;-73
2022/12/27 09:42:56;;;;;;;11.77;3.72;;;;;;;4.46;100.00;101627.13;6246324;22;20007;-74
2022/12/27 09:45:35;;;;;;;8.10;3.70;;;;;;;4.39;100.00;101632.06;6246575;22;20031;-75
2022/12/27 09:48:13;;;;;;;7.03;2.92;;;;;;;4.33;100.00;101629.25;6244828;22;20023;-74
2022/12/27 09:51:01;;;;;;;5.10;3.38;;;;;;;4.28;100.00;101640.34;6220172;22;20088;-74
2022/12/27 09:53:52;;;;;;;8.90;3.95;;;;;;;4.32;100.00;101630.97;6245723;22;20061;-74
2022/12/27 09:56:28;;;;;;;16.75;5.03;;;;;;;4.36;100.00;101632.84;6245480;22;20020;-75
2022/12/27 09:58:58;;;;;;;7.93;3.83;;;;;;;4.52;100.00;101638.50;6245395;22;20419;-74
2022/12/27 10:01:39;;;;;;;9.73;3.60;;;;;;;4.61;99.55;101644.00;6271750;22;20008;-75
2022/12/27 10:04:12;;;;;;;6.30;3.30;;;;;;;4.65;99.93;101648.44;6220675;22;20443;-76
2022/12/27 10:06:49;;;;;;;8.20;3.67;;;;;;;4.73;99.58;101638.31;6245827;22;20500;-75
2022/12/27 10:09:32;;;;;;;5.25;3.30;;;;;;;4.86;98.63;101634.38;6270814;22;20426;-74
2022/12/27 10:12:30;;;;;;;7.80;3.72;;;;;;;4.95;97.77;101645.91;6243318;22;20511;-75
2022/12/27 10:15:23;;;;;;;11.10;4.97;;;;;;;4.89;97.39;101642.22;6245512;22;20439;-75
2022/12/27 10:18:31;;;;;;;4.93;3.08;;;;;;;4.72;98.40;101636.53;6245478;22;20650;-75
2022/12/27 10:21:20;;;;;;;11.65;3.42;;;;;;;4.81;97.79;101636.84;6220759;22;20110;-75
2022/12/27 10:24:26;;;;;;;9.85;3.78;;;;;;;4.85;97.78;101638.69;6245416;22;20094;-76
2022/12/27 10:26:55;;;;;;;13.05;3.33;;;;;;;4.92;97.70;101634.56;6168468;22;20086;-75
2022/12/27 10:29:28;;;;;;;9.60;3.20;;;;;;;4.91;97.47;101641.44;6245828;22;20016;-76
2022/12/27 10:31:55;;;;;;;4.78;3.25;;;;;;;4.93;97.05;101639.78;6219937;22;20016;-74
2022/12/27 10:34:23;;;;;;;6.32;3.35;;;;;;;4.88;97.62;101643.97;6245327;22;20016;-75
2022/12/27 10:36:51;;;;;;;7.82;2.97;;;;;;;4.80;98.75;101656.69;6245536;22;20032;-74
2022/12/27 10:39:27;;;;;;;5.53;2.75;;;;;;;4.80;99.56;101651.50;6217821;22;20115;-75
2022/12/27 10:42:26;;;;;;;3.20;2.30;;;;;;;4.57;100.00;101666.34;6244525;22;20078;-74
2022/12/27 10:45:33;;;;;;;10.60;4.22;;;;;;;4.42;100.00;101663.25;6271412;22;20103;-75
2022/12/27 10:48:25;;;;;;;7.40;1.95;;;;;;;4.16;100.00;101662.38;6243565;22;20016;-74
2022/12/27 10:51:07;;;;;;;7.85;2.10;;;;;;;4.02;100.00;101664.53;6245015;22;20012;-75
2022/12/27 10:53:45;;;;;;;5.80;2.90;;;;;;;3.93;100.00;101660.78;6218812;22;20039;-75
2022/12/27 10:56:26;;;;;;;9.20;2.20;;;;;;;3.89;100.00;101668.41;6270614;22;20426;-75
2022/12/27 10:59:05;;;;;;;4.50;3.15;;;;;;;3.73;100.00;101672.16;6218125;22;20061;-75
2022/12/27 11:01:32;;;;;;;5.80;3.22;;;;;;;3.62;100.00;101675.25;6242733;22;20018;-75
2022/12/27 11:04:24;;;;;;;5.40;3.38;;;;;;;3.65;100.00;101674.50;6243857;22;20087;-74
2022/12/27 11:07:17;;;;;;;4.63;3.15;;;;;;;3.87;100.00;101676.13;6243834;22;20199;-75
2022/12/27 11:09:45;;;;;;;6.63;3.13;;;;;;;4.21;100.00;101672.09;6240914;22;20466;-75
2022/12/27 11:12:22;;;;;;;4.60;3.05;;;;;;;4.51;100.00;101681.72;6216961;22;20016;-75
2022/12/27 11:15:17;;;;;;;6.93;3.50;;;;;;;4.62;100.00;101675.16;6243856;22;20012;-73
2022/12/27 11:17:46;;;;;;;;;;;;;;;4.43;100.00;101672.78;6244455;22;20772;-74
2022/12/27 11:20:30;;;;;;;3.80;3.45;;;;;;;4.21;100.00;101666.91;6244156;22;19911;-73
2022/12/27 11:23:13;;;;;;;9.85;3.60;;;;;;;4.10;100.00;101673.44;6243366;22;20022;-75
2022/12/27 11:26:00;;;;;;;6.70;3.27;;;;;;;4.05;100.00;101662.91;6243855;22;20092;-74
2022/12/27 11:28:38;;;;;;;5.03;3.20;;;;;;;4.03;100.00;101658.50;6217010;22;20016;-77
2022/12/27 11:31:09;;;;;;;21.73;4.85;;;;;;;4.08;100.00;101659.53;6242342;22;20007;-75
2022/12/27 11:33:41;;;;;;;5.40;3.65;;;;;;;4.14;100.00;101655.44;6216814;22;20383;-74
2022/12/27 11:36:14;;;;;;;10.23;3.90;;;;;;;4.15;100.00;101658.94;6246035;22;20823;-74
2022/12/27 11:38:46;;;;;;;7.95;4.30;;;;;;;4.17;100.00;101659.84;6218695;22;20022;-75
2022/12/27 11:41:31;;;;;;;9.85;3.92;;;;;;;4.19;100.00;101655.59;6244776;22;20016;-75
2022/12/27 11:44:22;;;;;;;9.80;3.67;;;;;;;4.53;100.00;101661.03;6244561;22;20453;-75
2022/12/27 11:47:24;;;;;;;5.32;2.80;;;;;;;4.92;100.00;101658.78;6243480;22;20506;-75
2022/12/27 11:49:57;;;;;;;2.63;2.38;;;;;;;5.21;100.00;101650.13;6242942;22;20728;-75
2022/12/27 11:53:09;;;;;;;7.95;2.97;;;;;;;5.21;97.96;101655.31;6242896;22;20505;-76
2022/12/27 11:56:10;;;;;;;5.60;2.67;;;;;;;5.28;97.41;101667.63;6147778;22;20050;-75
2022/12/27 11:59:01;;;;;;;8.57;2.40;;;;;;;5.34;98.22;101667.78;6243554;22;20012;-75
2022/12/27 12:01:43;;;;;;;7.20;2.75;;;;;;;5.56;96.42;101663.22;6241913;22;20043;-75
2022/12/27 12:04:57;;;;;;;5.22;2.03;;;;;;;5.59;94.38;101671.09;6272495;22;20014;-74
2022/12/27 12:07:54;;;;;;;6.57;2.40;;;;;;;5.47;94.88;101669.03;6269848;22;20019;-75
2022/12/27 12:10:35;;;;;;;10.13;2.53;;;;;;;5.60;93.72;101673.72;6270782;22;20114;-75
2022/12/27 12:13:27;;;;;;;8.45;2.45;;;;;;;5.72;92.85;101668.00;6219588;22;20358;-76
2022/12/27 12:16:34;;;;;;;10.43;4.40;;;;;;;5.74;91.99;101675.84;6221020;22;20019;-75
2022/12/27 12:19:24;;;;;;;6.38;2.38;;;;;;;5.64;91.56;101677.28;6270905;22;20015;-77
2022/12/27 12:22:51;;;;;;;11.63;4.15;;;;;;;5.60;91.99;101670.25;6245695;22;20600;-75
2022/12/27 12:25:53;;;;;;;3.90;1.90;;;;;;;5.57;90.55;101684.03;6148597;23;20378;-75
2022/12/27 12:28:58;;;;;;;5.63;1.83;;;;;;;5.46;90.40;101681.16;6242865;22;20023;-75
2022/12/27 12:31:49;;;;;;;7.63;2.95;;;;;;;5.52;91.10;101680.44;6243959;22;20030;-75
2022/12/27 12:34:58;;;;;;;5.30;2.45;;;;;;;5.51;90.51;101670.88;6220032;22;20020;-75
2022/12/27 12:37:49;;;;;;;8.35;3.45;;;;;;;5.50;90.81;101691.63;6272464;22;20051;-74
2022/12/27 12:40:39;;;;;;;5.38;2.30;;;;;;;5.47;90.84;101695.91;6245616;22;20065;-75
2022/12/27 12:43:21;;;;;;;7.03;2.25;;;;;;;5.39;90.81;101692.19;6243831;22;20019;-74
2022/12/27 12:46:22;;;;;;;7.90;2.00;;;;;;;5.35;90.95;101703.31;6245700;22;20015;-77
2022/12/27 12:49:03;;;;;;;7.25;2.00;;;;;;;5.30;90.55;101685.00;6244255;22;20012;-74
2022/12/27 12:51:56;;;;;;;5.93;2.53;;;;;;;5.28;91.30;101688.41;6271953;22;20011;-74
2022/12/27 12:55:04;;;;;;;8.38;2.05;;;;;;;5.30;91.06;101678.94;6219825;22;20103;-75
2022/12/27 12:58:11;;;;;;;4.00;3.17;;;;;;;5.22;90.86;101683.91;6244259;22;20133;-75
2022/12/27 13:01:15;;;;;;;7.18;2.78;;;;;;;5.20;90.57;101684.69;6244894;22;20026;-75
2022/12/27 13:04:12;;;;;;;11.23;2.13;;;;;;;5.28;89.52;101663.31;6245309;22;20655;-75
2022/12/27 13:07:00;;;;;;;7.60;2.70;;;;;;;5.31;89.03;101667.72;6246045;22;20623;-75
2022/12/27 13:09:59;;;;;;;5.75;1.77;;;;;;;5.24;89.24;101664.06;6244909;22;20308;-75
2022/12/27 13:12:37;;;;;;;4.65;2.45;;;;;;;5.21;90.09;101665.69;6271925;22;20023;-74
2022/12/27 13:15:19;;;;;;;8.68;2.55;;;;;;;5.18;91.16;101666.47;6244772;22;20008;-75
2022/12/27 13:18:11;;;;;;;4.30;2.78;;;;;;;5.22;91.71;101657.94;6271259;22;20065;-74
2022/12/27 13:20:53;;;;;;;6.90;2.10;;;;;;;5.36;91.10;101655.75;6245631;22;20016;-76
2022/12/27 13:23:45;;;;;;;7.80;2.08;;;;;;;5.39;90.29;101657.56;6242516;22;20020;-75
2022/12/27 13:26:46;;;;;;;5.80;2.22;;;;;;;5.42;89.84;101660.22;6244896;22;20474;-76
2022/12/27 13:30:14;;;;;;;6.90;2.70;;;;;;;5.41;90.59;101658.47;6218336;22;20520;-76
2022/12/27 13:33:08;;;;;;;7.75;4.13;;;;;;;5.45;89.48;101661.19;6093340;23;20143;-75
2022/12/27 13:36:03;;;;;;;5.05;3.42;;;;;;;5.47;89.86;101669.03;6244705;22;20123;-76
2022/12/27 13:39:13;;;;;;;6.32;2.97;;;;;;;5.48;89.37;101668.19;6218349;22;20577;-74
2022/12/27 13:42:26;;;;;;;6.55;3.30;;;;;;;5.41;87.40;101656.75;6244694;22;20020;-74
2022/12/27 13:45:20;;;;;;;3.40;3.03;;;;;;;5.34;87.83;101651.34;6246221;22;20031;-75
2022/12/27 13:48:24;;;;;;;7.13;3.10;;;;;;;5.24;88.38;101650.19;6246849;22;20027;-74
2022/12/27 13:51:18;;;;;;;3.00;2.67;;;;;;;5.14;88.53;101652.53;6248248;22;20016;-73
2022/12/27 13:54:17;;;;;;;4.85;3.05;;;;;;;5.07;89.11;101655.78;6249763;22;20438;-75
2022/12/27 13:57:23;;;;;;;5.90;3.63;;;;;;;4.99;89.30;101654.66;6250676;22;20426;-74